Time;durP1;ratioP1;P1;durP2;ratioP2;P2;SDS_P1;SDS_P2;PMS_P1;PMS_P2;Temp;Humidity;BMP_temperature;BMP_pressure;BME280_temperature;BME280_humidity;BME280_pressure;Samples;Min_cycle;Max_cycle;Signal;HPM_P1;HPM_P2
2023/09/05 00:01:15;;;;;;;12.40;5.50;;;;;;;18.00;81.60;101793.77;107323;1259;109353;-66
2023/09/05 00:03:43;;;;;;;12.90;4.90;;;;;;;18.03;81.89;101795.63;107321;1257;107840;-67
2023/09/05 00:06:11;;;;;;;9.60;5.70;;;;;;;18.06;81.74;101799.34;107311;1258;99215;-66
2023/09/05 00:08:40;;;;;;;12.90;5.30;;;;;;;18.08;81.77;101801.77;107324;1258;99780;-67
2023/09/05 00:11:08;;;;;;;9.70;4.90;;;;;;;18.10;81.71;101802.70;107326;1257;113364;-65
2023/09/05 00:13:36;;;;;;;7.80;5.10;;;;;;;18.11;81.52;101805.27;107332;1257;109995;-67
2023/09/05 00:16:04;;;;;;;6.90;4.60;;;;;;;18.12;81.39;101801.14;107274;1258;108487;-66
2023/09/05 00:18:33;;;;;;;9.90;5.20;;;;;;;18.11;81.20;101802.95;107350;1256;99035;-67
2023/09/05 00:21:01;;;;;;;14.80;5.10;;;;;;;18.09;81.21;101800.45;107330;1257;99938;-66
2023/09/05 00:23:29;;;;;;;13.80;5.20;;;;;;;18.08;81.35;101802.72;107313;1258;113114;-67
2023/09/05 00:25:57;;;;;;;9.70;5.00;;;;;;;18.07;81.31;101803.16;107361;1260;109252;-66
2023/09/05 00:28:25;;;;;;;10.00;5.60;;;;;;;18.05;81.15;101805.16;107326;1260;106678;-63
2023/09/05 00:30:53;;;;;;;9.40;5.50;;;;;;;18.03;80.94;101800.68;107327;1260;99164;-67
2023/09/05 00:33:21;;;;;;;19.20;5.70;;;;;;;17.96;80.96;101800.64;107265;1260;99735;-67
2023/09/05 00:35:53;;;;;;;11.00;5.00;;;;;;;17.92;80.87;101799.76;107330;1254;113174;-66
2023/09/05 00:38:25;;;;;;;20.30;4.90;;;;;;;17.87;80.91;101805.50;107346;1258;109641;-67
2023/09/05 00:40:53;;;;;;;9.60;4.90;;;;;;;17.82;81.16;101807.92;107320;1260;106926;-66
2023/09/05 00:43:21;;;;;;;13.20;5.00;;;;;;;17.76;81.01;101813.60;107300;1257;99188;-66
2023/09/05 00:45:55;;;;;;;6.60;4.50;;;;;;;17.73;81.09;101811.94;107364;1260;99073;-65
2023/09/05 00:48:27;;;;;;;7.30;4.60;;;;;;;17.71;81.23;101807.44;107392;1257;112613;-67
2023/09/05 00:50:57;;;;;;;15.60;4.60;;;;;;;17.68;81.20;101809.31;107201;1254;109623;-66
2023/09/05 00:53:26;;;;;;;10.90;4.80;;;;;;;17.63;80.93;101805.83;107369;1260;107845;-66
2023/09/05 00:55:55;;;;;;;10.80;5.20;;;;;;;17.56;80.67;101804.21;107228;1258;99230;-65
2023/09/05 00:58:24;;;;;;;10.50;4.90;;;;;;;17.52;80.95;101799.73;107401;1260;99194;-66
2023/09/05 01:00:53;;;;;;;11.60;4.50;;;;;;;17.50;81.06;101803.71;107372;1254;113150;-66
2023/09/05 01:03:21;;;;;;;13.30;5.60;;;;;;;17.43;80.76;101802.22;107364;1254;110061;-65
2023/09/05 01:05:56;;;;;;;8.20;4.50;;;;;;;17.36;80.92;101802.35;107297;1260;107562;-66
2023/09/05 01:08:38;;;;;;;13.60;5.00;;;;;;;17.31;81.10;101801.98;107302;1260;99045;-67
2023/09/05 01:11:08;;;;;;;8.70;4.70;;;;;;;17.29;81.27;101803.50;107436;1254;99691;-67
2023/09/05 01:13:37;;;;;;;18.80;4.70;;;;;;;17.26;81.04;101803.10;107355;1258;112176;-65
2023/09/05 01:16:06;;;;;;;10.90;4.50;;;;;;;17.23;81.23;101801.56;107425;1257;109353;-65
2023/09/05 01:18:34;;;;;;;7.00;4.50;;;;;;;17.19;81.39;101805.34;107215;1254;107645;-64
2023/09/05 01:21:27;;;;;;;12.00;4.90;;;;;;;17.12;81.72;101805.38;107318;1254;99179;-66
2023/09/05 01:24:19;;;;;;;6.80;4.60;;;;;;;17.04;81.57;101800.88;107255;1257;99330;-66
2023/09/05 01:26:51;;;;;;;14.60;5.40;;;;;;;16.97;81.49;101804.47;107294;1260;114058;-66
2023/09/05 01:29:34;;;;;;;12.10;5.60;;;;;;;16.95;81.79;101806.48;107352;1257;108264;-67
2023/09/05 01:32:05;;;;;;;15.10;4.80;;;;;;;16.87;81.67;101805.96;107295;1260;106744;-66
2023/09/05 01:34:33;;;;;;;6.40;4.80;;;;;;;16.82;81.71;101809.00;107219;1256;99166;-65
2023/09/05 01:37:02;;;;;;;10.90;5.00;;;;;;;16.77;82.02;101809.91;107372;1258;99729;-67
2023/09/05 01:39:31;;;;;;;8.10;4.60;;;;;;;16.70;82.07;101812.39;107346;1258;113693;-68
2023/09/05 01:41:59;;;;;;;8.20;4.50;;;;;;;16.62;82.07;101816.42;107334;1257;109191;-71
2023/09/05 01:44:28;;;;;;;6.60;4.90;;;;;;;16.56;82.16;101820.64;107311;1255;107812;-66
2023/09/05 01:46:56;;;;;;;9.10;4.30;;;;;;;16.53;82.44;101820.20;107350;1258;99201;-66
2023/09/05 01:49:24;;;;;;;10.30;4.20;;;;;;;16.48;82.87;101825.33;107352;1257;99160;-66
2023/09/05 01:51:53;;;;;;;10.50;4.50;;;;;;;16.45;82.69;101822.18;107354;1258;114603;-67
2023/09/05 01:54:22;;;;;;;12.20;5.50;;;;;;;16.47;82.96;101823.50;107237;1254;109774;-67
2023/09/05 01:56:51;;;;;;;9.00;4.80;;;;;;;16.50;83.02;101826.40;107358;1258;107671;-66
2023/09/05 01:59:21;;;;;;;9.60;4.50;;;;;;;16.52;82.88;101826.94;107278;1255;99275;-66
2023/09/05 02:01:49;;;;;;;15.10;5.60;;;;;;;16.51;82.90;101830.83;107211;1258;99186;-65
2023/09/05 02:04:17;;;;;;;13.10;4.60;;;;;;;16.54;82.85;101832.35;107337;1258;112328;-66
2023/09/05 02:06:46;;;;;;;17.00;5.20;;;;;;;16.55;82.85;101829.14;107401;1254;109559;-65
2023/09/05 02:09:14;;;;;;;12.70;4.20;;;;;;;16.58;82.77;101824.23;107352;1256;107799;-66
2023/09/05 02:11:42;;;;;;;15.60;4.20;;;;;;;16.58;82.58;101824.13;107337;1258;99189;-65
2023/09/05 02:14:10;;;;;;;11.70;5.10;;;;;;;16.57;82.35;101826.46;107178;1258;99730;-66
2023/09/05 02:16:39;;;;;;;14.00;4.30;;;;;;;16.55;82.04;101826.69;107217;1260;113532;-65
2023/09/05 02:19:07;;;;;;;13.80;4.40;;;;;;;16.51;81.73;101825.09;107209;1257;109651;-65
2023/09/05 02:21:36;;;;;;;11.40;4.60;;;;;;;16.47;81.72;101821.06;107319;1254;108484;-66
2023/09/05 02:24:05;;;;;;;7.80;3.90;;;;;;;16.46;81.64;101821.04;107303;1256;99207;-66
2023/09/05 02:26:33;;;;;;;6.20;3.90;;;;;;;16.42;81.59;101825.89;107347;1257;99080;-66
2023/09/05 02:29:02;;;;;;;14.90;4.70;;;;;;;16.38;81.52;101831.36;107341;1258;112515;-70
2023/09/05 02:31:30;;;;;;;13.00;4.30;;;;;;;16.34;81.43;101826.01;107391;1254;108871;-65
2023/09/05 02:33:58;;;;;;;10.50;3.60;;;;;;;16.27;81.34;101826.97;107319;1256;108252;-66
2023/09/05 02:36:30;;;;;;;9.20;3.90;;;;;;;16.21;81.23;101827.41;107360;1257;99291;-66
2023/09/05 02:38:59;;;;;;;11.60;4.10;;;;;;;16.19;81.48;101827.08;107361;1256;99108;-66
2023/09/05 02:41:27;;;;;;;8.90;4.00;;;;;;;16.17;81.54;101823.98;107358;1255;113205;-67
2023/09/05 02:43:56;;;;;;;15.40;4.00;;;;;;;16.16;81.65;101825.70;107322;1257;109150;-66
2023/09/05 02:46:25;;;;;;;7.70;3.30;;;;;;;16.15;81.58;101826.39;107337;1257;109055;-65
2023/09/05 02:48:54;;;;;;;9.30;4.40;;;;;;;16.15;81.66;101825.25;107371;1254;99194;-66
2023/09/05 02:51:22;;;;;;;7.60;4.30;;;;;;;16.15;81.68;101826.67;107223;1258;100987;-67
2023/09/05 02:53:56;;;;;;;13.10;4.00;;;;;;;16.14;81.66;101825.31;107172;1257;112587;-66
2023/09/05 02:56:25;;;;;;;7.70;4.50;;;;;;;16.14;81.67;101821.75;107373;1257;109324;-66
2023/09/05 02:58:53;;;;;;;20.30;4.70;;;;;;;16.14;81.69;101826.27;107349;1254;107155;-66
2023/09/05 03:01:21;;;;;;;11.30;4.30;;;;;;;16.14;81.53;101827.16;107401;1254;99288;-66
2023/09/05 03:03:49;;;;;;;14.20;3.90;;;;;;;16.13;81.49;101826.55;107317;1257;99346;-65
2023/09/05 03:06:18;;;;;;;19.10;5.30;;;;;;;16.12;81.41;101826.85;107220;1254;113455;-67
2023/09/05 03:08:46;;;;;;;18.00;7.30;;;;;;;16.08;81.22;101822.83;107388;1254;109755;-66
2023/09/05 03:11:16;;;;;;;10.80;4.10;;;;;;;16.06;81.22;101828.86;107398;1254;107022;-66
2023/09/05 03:13:46;;;;;;;9.10;4.70;;;;;;;16.03;81.14;101826.25;107345;1256;99172;-64
2023/09/05 03:16:14;;;;;;;12.30;4.50;;;;;;;16.00;81.00;101829.39;107364;1260;99098;-66
2023/09/05 03:18:46;;;;;;;11.20;4.20;;;;;;;15.97;81.09;101835.24;107195;1260;112618;-65
2023/09/05 03:21:14;;;;;;;7.60;4.20;;;;;;;15.93;80.71;101834.73;107348;1257;110084;-68
2023/09/05 03:23:43;;;;;;;7.50;4.10;;;;;;;15.90;80.88;101842.98;107364;1257;106843;-66
2023/09/05 03:26:11;;;;;;;13.40;4.30;;;;;;;15.88;81.03;101839.70;107333;1257;99195;-66
2023/09/05 03:28:42;;;;;;;9.20;4.20;;;;;;;15.85;80.90;101841.61;107318;1258;99191;-64
2023/09/05 03:31:13;;;;;;;;;;;;;;;15.83;80.90;101850.66;107360;1254;113344;-66
2023/09/05 03:33:41;;;;;;;23.20;6.10;;;;;;;15.83;80.93;101850.29;107332;1256;109712;-65
2023/09/05 03:36:11;;;;;;;10.50;4.10;;;;;;;15.84;80.99;101856.92;107356;1258;108327;-65
2023/09/05 03:38:39;;;;;;;18.00;5.80;;;;;;;15.87;81.05;101853.98;107351;1254;99271;-66
2023/09/05 03:41:10;;;;;;;9.00;5.90;;;;;;;15.88;80.99;101854.75;107334;1254;99819;-66
2023/09/05 03:43:38;;;;;;;25.20;6.80;;;;;;;15.89;80.80;101852.14;107340;1254;113255;-65
2023/09/05 03:46:07;;;;;;;12.80;5.10;;;;;;;15.83;80.32;101852.71;107352;1254;110233;-65
2023/09/05 03:48:36;;;;;;;8.90;4.50;;;;;;;15.81;80.50;101859.39;107236;1254;108061;-66
2023/09/05 03:51:04;;;;;;;8.70;4.50;;;;;;;15.81;80.32;101858.08;107331;1255;99201;-67
2023/09/05 03:53:33;;;;;;;12.50;5.30;;;;;;;15.83;80.50;101859.34;107276;1258;99108;-67
2023/09/05 03:56:04;;;;;;;10.90;4.60;;;;;;;15.80;79.95;101863.20;107376;1254;113489;-66
2023/09/05 03:58:32;;;;;;;10.80;4.10;;;;;;;15.79;80.20;101865.02;107186;1256;110056;-65
2023/09/05 04:01:02;;;;;;;13.40;4.40;;;;;;;15.79;80.26;101868.95;107168;1255;108600;-66
2023/09/05 04:03:34;;;;;;;11.20;4.30;;;;;;;15.79;80.19;101870.20;107211;1257;99256;-67
2023/09/05 04:06:02;;;;;;;9.10;4.50;;;;;;;15.81;80.28;101872.74;107191;1254;99730;-69
2023/09/05 04:08:31;;;;;;;9.70;3.80;;;;;;;15.83;80.23;101876.52;107339;1257;112883;-66
2023/09/05 04:11:01;;;;;;;10.50;4.30;;;;;;;15.86;80.17;101880.27;107371;1254;109815;-65
2023/09/05 04:13:29;;;;;;;8.40;5.00;;;;;;;15.89;80.06;101885.26;107394;1256;108500;-67
2023/09/05 04:16:04;;;;;;;16.30;4.20;;;;;;;15.90;80.09;101887.63;107336;1258;99175;-66
2023/09/05 04:18:36;;;;;;;9.40;4.00;;;;;;;15.91;79.84;101893.86;107357;1254;99070;-66
2023/09/05 04:21:07;;;;;;;16.60;4.20;;;;;;;15.92;79.71;101899.92;107215;1254;111852;-67
2023/09/05 04:23:36;;;;;;;15.30;5.30;;;;;;;15.89;79.39;101901.14;107326;1255;109638;-66
2023/09/05 04:26:04;;;;;;;10.70;4.50;;;;;;;15.88;79.34;101900.30;107330;1255;107780;-65
2023/09/05 04:28:33;;;;;;;15.00;4.90;;;;;;;15.89;79.39;101897.73;107257;1257;99236;-66
2023/09/05 04:31:03;;;;;;;10.80;4.70;;;;;;;15.84;79.10;101899.98;107351;1254;99217;-66
2023/09/05 04:33:37;;;;;;;14.30;5.00;;;;;;;15.83;79.32;101898.80;107362;1254;113104;-67
2023/09/05 04:36:08;;;;;;;10.80;4.30;;;;;;;15.83;79.45;101905.36;107239;1254;108229;-66
2023/09/05 04:38:37;;;;;;;14.40;4.60;;;;;;;15.85;79.65;101908.95;107331;1257;107588;-68
2023/09/05 04:41:08;;;;;;;12.80;4.80;;;;;;;15.91;79.77;101916.73;107369;1254;99258;-66
2023/09/05 04:43:37;;;;;;;14.00;4.30;;;;;;;15.96;79.50;101921.80;107347;1257;99748;-68
2023/09/05 04:46:06;;;;;;;11.00;3.70;;;;;;;16.01;79.33;101929.77;107333;1254;113450;-68
2023/09/05 04:48:35;;;;;;;19.90;3.90;;;;;;;16.04;79.19;101933.95;107344;1257;110011;-67
2023/09/05 04:51:04;;;;;;;9.30;3.80;;;;;;;16.08;79.15;101938.80;107361;1254;106797;-69
2023/09/05 04:53:33;;;;;;;12.30;4.60;;;;;;;16.10;78.92;101944.02;107381;1257;99182;-68
2023/09/05 04:56:03;;;;;;;13.10;4.60;;;;;;;16.14;78.75;101945.71;107375;1257;99086;-68
2023/09/05 04:58:32;;;;;;;12.00;4.30;;;;;;;16.19;78.88;101948.27;107346;1257;113166;-66
2023/09/05 05:01:04;;;;;;;19.30;5.30;;;;;;;16.23;78.29;101947.04;107369;1254;108222;-69
2023/09/05 05:03:33;;;;;;;25.90;9.20;;;;;;;16.24;78.21;101943.30;107345;1256;107496;-67
2023/09/05 05:06:03;;;;;;;15.30;4.90;;;;;;;16.27;77.93;101945.36;107386;1257;99294;-67
2023/09/05 05:08:31;;;;;;;8.40;4.20;;;;;;;16.31;77.82;101945.73;107419;1254;99275;-68
2023/09/05 05:11:04;;;;;;;16.80;4.50;;;;;;;16.37;77.97;101949.91;107194;1257;113007;-67
2023/09/05 05:13:33;;;;;;;10.90;4.10;;;;;;;16.41;77.74;101947.91;107371;1259;110018;-68
2023/09/05 05:16:02;;;;;;;12.80;4.80;;;;;;;16.46;77.74;101949.20;107327;1254;107926;-64
2023/09/05 05:18:30;;;;;;;10.10;3.70;;;;;;;16.52;77.78;101951.34;107301;1254;99090;-65
2023/09/05 05:20:58;;;;;;;11.50;5.90;;;;;;;16.58;77.35;101955.66;107351;1254;99197;-64
2023/09/05 05:23:27;;;;;;;9.60;3.90;;;;;;;16.61;76.85;101958.52;107303;1257;113354;-67
2023/09/05 05:25:59;;;;;;;10.30;4.10;;;;;;;16.59;75.69;101959.96;107345;1257;109306;-66
2023/09/05 05:28:27;;;;;;;8.00;3.60;;;;;;;16.58;75.73;101960.60;107335;1257;108048;-67
2023/09/05 05:30:55;;;;;;;7.30;2.80;;;;;;;16.58;75.42;101957.30;107320;1257;99215;-67
2023/09/05 05:33:24;;;;;;;11.20;3.30;;;;;;;16.60;74.65;101952.61;107341;1256;99096;-67
2023/09/05 05:35:54;;;;;;;10.50;3.50;;;;;;;16.63;75.07;101950.48;107320;1254;112553;-66
2023/09/05 05:38:23;;;;;;;5.80;3.10;;;;;;;16.68;74.83;101950.75;107290;1254;108773;-66
2023/09/05 05:40:51;;;;;;;8.20;2.80;;;;;;;16.72;74.66;101952.18;107290;1257;107522;-65
2023/09/05 05:43:20;;;;;;;8.20;3.90;;;;;;;16.76;74.35;101951.09;107338;1254;99272;-66
2023/09/05 05:45:51;;;;;;;8.40;3.70;;;;;;;16.79;73.84;101958.41;107394;1257;99083;-67
2023/09/05 05:48:20;;;;;;;12.00;5.30;;;;;;;16.81;73.21;101957.12;107359;1257;113263;-66
2023/09/05 05:50:49;;;;;;;8.60;4.30;;;;;;;16.83;73.11;101962.95;107293;1257;109956;-66
2023/09/05 05:53:20;;;;;;;13.90;6.10;;;;;;;16.82;72.34;101960.27;107335;1254;108354;-66
2023/09/05 05:55:48;;;;;;;7.60;3.10;;;;;;;16.80;72.47;101956.27;107308;1257;99185;-66
2023/09/05 05:58:17;;;;;;;16.20;3.20;;;;;;;16.84;72.66;101957.52;107320;1257;99804;-64
2023/09/05 06:00:51;;;;;;;11.10;3.70;;;;;;;16.89;72.55;101959.55;107321;1257;114385;-66
2023/09/05 06:03:21;;;;;;;5.20;3.00;;;;;;;16.91;72.31;101957.05;107361;1254;109260;-64
2023/09/05 06:05:54;;;;;;;8.40;3.20;;;;;;;16.97;72.59;101959.25;107392;1257;107495;-66
2023/09/05 06:08:23;;;;;;;14.90;3.40;;;;;;;17.02;72.31;101961.23;107354;1257;99194;-67
2023/09/05 06:10:52;;;;;;;7.90;3.70;;;;;;;17.06;71.95;101966.18;107374;1257;99061;-65
2023/09/05 06:13:20;;;;;;;8.10;3.10;;;;;;;17.07;71.34;101965.86;107398;1257;112601;-67
2023/09/05 06:15:49;;;;;;;15.90;3.40;;;;;;;17.11;71.77;101968.36;107321;1254;109141;-65
2023/09/05 06:18:17;;;;;;;6.60;3.20;;;;;;;17.17;71.59;101967.07;107354;1254;108610;-67
2023/09/05 06:20:45;;;;;;;13.20;4.10;;;;;;;17.20;71.04;101971.46;107280;1257;99245;-66
2023/09/05 06:23:14;;;;;;;7.80;3.00;;;;;;;17.26;71.18;101970.01;107388;1254;99098;-67
2023/09/05 06:25:42;;;;;;;11.30;5.30;;;;;;;17.34;71.21;101970.13;107399;1256;112754;-67
2023/09/05 06:28:11;;;;;;;8.80;3.10;;;;;;;17.41;70.88;101964.20;107350;1257;109916;-66
2023/09/05 06:30:39;;;;;;;6.00;2.80;;;;;;;17.49;70.71;101960.71;107334;1256;108261;-67
2023/09/05 06:33:07;;;;;;;9.20;2.80;;;;;;;17.55;70.32;101959.18;107361;1254;99275;-66
2023/09/05 06:35:36;;;;;;;12.50;3.50;;;;;;;17.60;70.27;101960.49;107364;1257;99115;-67
2023/09/05 06:38:05;;;;;;;6.20;2.80;;;;;;;17.69;70.32;101961.09;107405;1256;112442;-67
2023/09/05 06:40:34;;;;;;;10.70;3.10;;;;;;;17.78;69.90;101972.46;107353;1255;109082;-67
2023/09/05 06:43:02;;;;;;;5.20;3.20;;;;;;;17.84;69.81;101969.38;107320;1254;107923;-63
2023/09/05 06:45:31;;;;;;;12.10;3.50;;;;;;;17.92;68.64;101969.16;107399;1257;99172;-68
2023/09/05 06:48:00;;;;;;;7.20;3.20;;;;;;;17.97;68.02;101968.98;107391;1257;99074;-66
2023/09/05 06:50:28;;;;;;;8.30;3.50;;;;;;;18.04;68.40;101962.83;107393;1257;113359;-66
2023/09/05 06:52:56;;;;;;;10.40;3.30;;;;;;;18.09;68.21;101962.50;107385;1254;108731;-67
2023/09/05 06:55:24;;;;;;;9.00;3.20;;;;;;;18.15;67.75;101958.45;107356;1256;107329;-69
2023/09/05 06:57:52;;;;;;;8.30;3.20;;;;;;;18.20;68.04;101960.02;107346;1254;99259;-64
2023/09/05 07:00:26;;;;;;;4.20;3.30;;;;;;;18.25;68.06;101966.72;107335;1256;99172;-68
2023/09/05 07:02:54;;;;;;;8.40;3.60;;;;;;;18.32;68.29;101968.92;107434;1254;113187;-66
2023/09/05 07:05:22;;;;;;;7.40;3.50;;;;;;;18.37;68.11;101968.44;107321;1257;108564;-67
2023/09/05 07:07:51;;;;;;;9.30;4.10;;;;;;;18.41;67.99;101965.44;107368;1254;108394;-66
2023/09/05 07:10:19;;;;;;;5.60;3.20;;;;;;;18.48;67.71;101964.94;107335;1257;99832;-66
2023/09/05 07:12:47;;;;;;;5.60;2.80;;;;;;;18.56;67.44;101959.72;107380;1254;99710;-66
2023/09/05 07:15:15;;;;;;;8.50;3.20;;;;;;;18.63;67.13;101960.44;107341;1256;112166;-66
2023/09/05 07:17:43;;;;;;;11.90;3.50;;;;;;;18.73;66.27;101961.22;107382;1254;109337;-66
2023/09/05 07:20:12;;;;;;;5.60;3.00;;;;;;;18.81;66.29;101954.38;107261;1254;108781;-66
2023/09/05 07:22:40;;;;;;;11.00;3.60;;;;;;;18.88;65.91;101952.55;107363;1254;99269;-66
2023/09/05 07:25:09;;;;;;;6.70;3.40;;;;;;;18.95;66.14;101953.70;107381;1254;99722;-66
2023/09/05 07:27:37;;;;;;;9.30;4.30;;;;;;;19.04;66.04;101953.08;107440;1253;113412;-65
2023/09/05 07:30:06;;;;;;;6.50;3.00;;;;;;;19.11;65.51;101952.86;107337;1257;109658;-66
2023/09/05 07:32:35;;;;;;;5.30;3.00;;;;;;;19.20;64.84;101941.20;107408;1254;107411;-65
2023/09/05 07:35:04;;;;;;;6.00;3.10;;;;;;;19.28;64.89;101939.85;107368;1257;99073;-66
2023/09/05 07:37:33;;;;;;;7.70;3.70;;;;;;;19.36;64.55;101928.36;107392;1254;99060;-66
2023/09/05 07:40:05;;;;;;;12.20;3.60;;;;;;;19.45;64.27;101927.86;107302;1257;113060;-67
2023/09/05 07:42:33;;;;;;;12.40;3.30;;;;;;;19.54;64.22;101929.73;107371;1254;109406;-66
2023/09/05 07:45:02;;;;;;;16.80;3.20;;;;;;;19.66;63.07;101933.68;107332;1257;107532;-66
2023/09/05 07:47:30;;;;;;;4.40;2.80;;;;;;;19.75;63.54;101935.46;107342;1254;99186;-66
2023/09/05 07:49:58;;;;;;;9.70;3.20;;;;;;;19.82;63.19;101934.55;107396;1254;99252;-67
2023/09/05 07:52:27;;;;;;;14.20;3.10;;;;;;;19.91;62.64;101932.17;107370;1254;112877;-66
2023/09/05 07:54:55;;;;;;;15.10;3.10;;;;;;;20.02;62.19;101933.27;107338;1254;109253;-66
2023/09/05 07:57:23;;;;;;;14.90;2.90;;;;;;;20.14;62.24;101928.98;107346;1257;107693;-66
2023/09/05 07:59:51;;;;;;;8.90;2.90;;;;;;;20.25;62.18;101925.64;107329;1256;99217;-66
2023/09/05 08:02:19;;;;;;;10.20;3.80;;;;;;;20.37;61.56;101925.80;107336;1254;99179;-66
2023/09/05 08:04:47;;;;;;;10.80;3.00;;;;;;;20.43;60.43;101926.20;107346;1257;113260;-67
2023/09/05 08:07:15;;;;;;;8.50;2.70;;;;;;;20.55;60.32;101924.13;107351;1254;109779;-66
2023/09/05 08:09:44;;;;;;;7.60;3.30;;;;;;;20.69;59.89;101914.30;107370;1256;106812;-68
2023/09/05 08:12:13;;;;;;;7.70;2.50;;;;;;;20.86;59.79;101908.99;107320;1258;99170;-67
2023/09/05 08:14:41;;;;;;;7.80;2.50;;;;;;;21.02;58.45;101904.58;107380;1254;99073;-65
2023/09/05 08:17:09;;;;;;;6.30;2.50;;;;;;;21.17;57.17;101901.90;107347;1257;112353;-66
2023/09/05 08:19:38;;;;;;;7.90;2.90;;;;;;;21.32;56.82;101904.09;107337;1255;109093;-66
2023/09/05 08:22:08;;;;;;;9.00;2.80;;;;;;;21.48;56.28;101906.30;107311;1257;108196;-67
2023/09/05 08:24:36;;;;;;;2.30;2.10;;;;;;;21.64;55.26;101901.77;107321;1257;99178;-66
2023/09/05 08:27:05;;;;;;;12.70;2.90;;;;;;;21.80;55.00;101899.51;107352;1256;99063;-67
2023/09/05 08:29:34;;;;;;;6.90;2.40;;;;;;;21.95;54.28;101898.88;107377;1255;113669;-68
2023/09/05 08:32:03;;;;;;;7.70;2.30;;;;;;;22.07;54.67;101902.23;107311;1257;109720;-66
2023/09/05 08:34:32;;;;;;;7.90;2.40;;;;;;;22.21;54.47;101898.50;107394;1254;107398;-65
2023/09/05 08:37:01;;;;;;;5.50;2.10;;;;;;;22.36;53.84;101896.64;107316;1256;99253;-65
2023/09/05 08:39:29;;;;;;;4.40;2.30;;;;;;;22.53;52.49;101892.98;107377;1257;99229;-66
2023/09/05 08:41:58;;;;;;;6.30;2.50;;;;;;;22.65;53.19;101894.32;107262;1254;112430;-64
2023/09/05 08:44:27;;;;;;;15.00;2.50;;;;;;;22.83;53.17;101892.85;107298;1257;109809;-67
2023/09/05 08:46:55;;;;;;;5.60;2.70;;;;;;;23.03;51.89;101894.16;107235;1255;108607;-68
2023/09/05 08:49:24;;;;;;;4.10;2.30;;;;;;;23.18;51.09;101890.85;107294;1257;99296;-66
2023/09/05 08:51:57;;;;;;;10.50;3.20;;;;;;;23.34;50.27;101883.53;107376;1254;99185;-67
2023/09/05 08:54:25;;;;;;;7.00;2.40;;;;;;;23.52;50.37;101886.08;107331;1254;114200;-63
2023/09/05 08:56:54;;;;;;;5.20;1.80;;;;;;;23.65;49.58;101882.55;107334;1257;109269;-67
2023/09/05 08:59:25;;;;;;;4.40;2.30;;;;;;;23.88;49.05;101887.38;107300;1256;107736;-67
2023/09/05 09:01:53;;;;;;;8.70;2.60;;;;;;;24.08;49.06;101881.67;107391;1257;99167;-65
2023/09/05 09:04:24;;;;;;;5.70;2.20;;;;;;;24.37;47.25;101880.31;107405;1254;99063;-66
2023/09/05 09:06:55;;;;;;;6.80;1.50;;;;;;;24.63;46.62;101879.50;107393;1254;112265;-67
2023/09/05 09:09:34;;;;;;;4.40;1.90;;;;;;;24.99;44.91;101876.67;107379;1255;110173;-67
2023/09/05 09:12:04;;;;;;;9.00;1.70;;;;;;;25.28;44.03;101874.20;107343;1256;107631;-67
2023/09/05 09:14:33;;;;;;;7.60;2.00;;;;;;;25.56;44.09;101874.36;107360;1257;99282;-63
2023/09/05 09:17:04;;;;;;;7.20;2.10;;;;;;;25.83;43.89;101872.92;107377;1257;99057;-68
2023/09/05 09:19:33;;;;;;;8.40;2.20;;;;;;;26.25;43.20;101867.10;107362;1257;112705;-68
2023/09/05 09:22:02;;;;;;;5.80;2.90;;;;;;;26.47;40.46;101870.33;107364;1254;109869;-66
2023/09/05 09:24:35;;;;;;;5.70;1.90;;;;;;;26.36;41.08;101872.77;107394;1254;108436;-66
2023/09/05 09:27:05;;;;;;;8.80;1.70;;;;;;;26.86;41.11;101867.31;107359;1256;99200;-67
2023/09/05 09:29:34;;;;;;;6.80;1.70;;;;;;;27.65;40.28;101867.61;107409;1255;99172;-66
2023/09/05 09:32:05;;;;;;;7.80;1.70;;;;;;;28.47;39.60;101864.34;107335;1256;112586;-67
2023/09/05 09:34:38;;;;;;;9.40;2.20;;;;;;;29.25;35.70;101854.54;107295;1254;108414;-67
2023/09/05 09:37:07;;;;;;;3.40;1.70;;;;;;;29.63;36.20;101859.59;107388;1256;108792;-66
2023/09/05 09:39:36;;;;;;;5.70;1.90;;;;;;;30.08;34.58;101861.46;107372;1254;99272;-67
2023/09/05 09:42:04;;;;;;;6.40;2.00;;;;;;;30.34;34.80;101859.86;107382;1257;99296;-66
2023/09/05 09:44:35;;;;;;;5.90;1.60;;;;;;;30.93;33.90;101856.09;107399;1254;113197;-67
2023/09/05 09:47:03;;;;;;;3.70;1.50;;;;;;;31.61;34.82;101855.69;107354;1256;108573;-67
2023/09/05 09:49:36;;;;;;;2.00;1.50;;;;;;;32.44;32.20;101850.35;107352;1257;107879;-67
2023/09/05 09:52:12;;;;;;;3.70;1.20;;;;;;;32.93;29.46;101851.44;107359;1257;99194;-67
2023/09/05 09:54:44;;;;;;;6.90;1.90;;;;;;;33.20;29.69;101842.20;107419;1254;99144;-68
2023/09/05 09:57:24;;;;;;;3.90;1.40;;;;;;;33.11;29.44;101839.09;106932;1257;567831;-68
2023/09/05 10:00:15;;;;;;;7.70;1.60;;;;;;;32.27;29.97;101837.58;107294;1256;110067;-68
2023/09/05 10:02:45;;;;;;;7.50;1.60;;;;;;;32.06;30.49;101834.16;107335;1258;108360;-67
2023/09/05 10:05:18;;;;;;;7.70;1.80;;;;;;;31.52;30.47;101828.23;107335;1254;99304;-67
2023/09/05 10:07:48;;;;;;;3.80;1.50;;;;;;;31.04;31.12;101831.40;107317;1256;99282;-67
2023/09/05 10:10:18;;;;;;;14.10;1.60;;;;;;;31.36;30.99;101827.18;107389;1256;112435;-67
2023/09/05 10:12:46;;;;;;;11.10;2.00;;;;;;;31.08;30.49;101825.24;107323;1257;109351;-65
2023/09/05 10:15:17;;;;;;;7.60;2.20;;;;;;;31.11;31.75;101824.19;107279;1257;108584;-66
2023/09/05 10:17:47;;;;;;;5.30;1.30;;;;;;;31.74;29.80;101815.53;107315;1256;99190;-67
2023/09/05 10:20:18;;;;;;;6.50;1.60;;;;;;;31.14;29.75;101821.41;107323;1257;99118;-65
2023/09/05 10:22:53;;;;;;;3.20;1.60;;;;;;;30.70;30.36;101823.08;107315;1257;112916;-66
2023/09/05 10:25:23;;;;;;;3.10;1.60;;;;;;;30.97;31.06;101821.81;107368;1257;109660;-66
2023/09/05 10:27:51;;;;;;;8.90;1.80;;;;;;;31.47;30.55;101821.86;107319;1254;108119;-67
2023/09/05 10:30:21;;;;;;;2.90;1.40;;;;;;;30.85;30.45;101821.09;107306;1257;99144;-67
2023/09/05 10:32:52;;;;;;;4.10;1.70;;;;;;;30.23;31.20;101821.61;107351;1257;99266;-68
2023/09/05 10:35:22;;;;;;;3.70;1.70;;;;;;;30.82;30.17;101816.92;107407;1257;112417;-67
2023/09/05 10:38:01;;;;;;;4.20;1.60;;;;;;;31.39;30.39;101811.83;107336;1257;108937;-67
2023/09/05 10:40:47;;;;;;;7.60;1.60;;;;;;;31.68;29.27;101807.77;107333;1257;107714;-66
2023/09/05 10:43:22;;;;;;;5.20;1.40;;;;;;;30.80;29.57;101813.80;107277;1255;100951;-65
2023/09/05 10:45:58;;;;;;;3.30;1.70;;;;;;;30.07;31.40;101812.58;107326;1256;99851;-67
2023/09/05 10:48:33;;;;;;;3.00;1.80;;;;;;;30.75;30.61;101813.21;107332;1254;113487;-66
2023/09/05 10:51:13;;;;;;;3.90;1.40;;;;;;;31.36;29.05;101809.09;107198;1260;109368;-68
2023/09/05 10:53:47;;;;;;;2.10;1.50;;;;;;;30.95;30.13;101812.27;107319;1254;108669;-66
2023/09/05 10:56:41;;;;;;;3.90;2.00;;;;;;;31.33;30.52;101809.11;107348;1254;99923;-67
2023/09/05 10:59:23;;;;;;;2.90;1.80;;;;;;;32.13;28.15;101804.42;107429;1254;99729;-67
2023/09/05 11:01:56;;;;;;;3.30;1.70;;;;;;;32.64;27.94;101802.27;107339;1256;112590;-68
2023/09/05 11:04:29;;;;;;;2.20;1.80;;;;;;;33.20;27.50;101806.13;107322;1257;109268;-66
2023/09/05 11:07:03;;;;;;;;;;;;;;;33.33;27.22;101804.73;107399;1256;108257;-67
2023/09/05 11:09:42;;;;;;;7.30;1.80;;;;;;;32.54;27.34;101805.33;107319;1254;99188;-68
2023/09/05 11:12:12;;;;;;;5.50;1.70;;;;;;;32.73;27.69;101803.94;107327;1255;99733;-68
2023/09/05 11:14:40;;;;;;;1.90;1.30;;;;;;;33.43;27.80;101803.49;107404;1254;111883;-67
2023/09/05 11:17:12;;;;;;;6.00;1.80;;;;;;;33.37;26.36;101803.42;107383;1257;108723;-67
2023/09/05 11:19:45;;;;;;;7.30;1.30;;;;;;;33.07;27.05;101798.96;107316;1256;108232;-67
2023/09/05 11:22:18;;;;;;;3.20;1.50;;;;;;;33.52;26.61;101796.94;107324;1257;99387;-66